Current Weather

South County Airport of Santa

South County Airport of Santa, California (KE16)

Report from: Monday, August 15, 2022 8:35 PM CDT
Current time: Monday, August 15, 2022 8:52 PM CDT

Nearby weather
Weather history
Weather forecast

Temperature25.0°C (77.0°F)
Dew point12.0°C (53.6°F)
Winds 9 kts (4.6 m/s, 10.4 mph) South-Southeast (150°)
Visibility10 mi. (16.1 km)
Clouds Sky clear
Altimeter29.81 in.Hg (1009 mB)
Precip. events K 8:16 PM
Relative humidity44 %
Density altitude1,482 ft. (452 m)
Remarks Fully automated report
Automated weather observing station with precipitation discriminator
Present weather sensor not operating
Precipitation sensor not operating
Flight conditions Visual Meteorological Conditions
Raw dataKE16 160135Z AUTO 15009KT 10SM CLR 25/12 A2981 RMK AO2 PWINO PNO
An error has occurred. This application may no longer respond until reloaded. Reload 🗙